Time;durP1;ratioP1;P1;durP2;ratioP2;P2;SDS_P1;SDS_P2;PMS_P1;PMS_P2;Temp;Humidity;BMP_temperature;BMP_pressure;BME280_temperature;BME280_humidity;BME280_pressure;Samples;Min_cycle;Max_cycle;Signal;HPM_P1;HPM_P2
2022/06/12 00:00:36;;;;;;;;;;;13.50;99.90;;;;;;5018209;28;19920;-74
2022/06/12 00:03:03;;;;;;;;;;;13.40;99.90;;;;;;4967602;28;19939;-74
2022/06/12 00:05:30;;;;;;;;;;;13.50;99.90;;;;;;4981713;28;20424;-74
2022/06/12 00:07:56;;;;;;;;;;;13.40;99.90;;;;;;4981365;28;21655;-74
2022/06/12 00:10:21;;;;;;;;;;;13.40;99.90;;;;;;4991587;28;20715;-74
2022/06/12 00:12:47;;;;;;;;;;;13.40;99.90;;;;;;4986051;28;20743;-74
2022/06/12 00:15:14;;;;;;;;;;;13.40;99.90;;;;;;4985694;28;19993;-73
2022/06/12 00:17:41;;;;;;;;;;;13.30;99.90;;;;;;4964841;28;19920;-74
2022/06/12 00:20:07;;;;;;;;;;;13.30;99.90;;;;;;5065596;28;19989;-75
2022/06/12 00:22:33;;;;;;;;;;;13.30;99.90;;;;;;5047447;28;19923;-75
2022/06/12 00:24:58;;;;;;;;;;;13.30;99.90;;;;;;5085281;28;19908;-74
2022/06/12 00:27:24;;;;;;;;;;;13.30;99.90;;;;;;5093135;28;19916;-74
2022/06/12 00:29:50;;;;;;;;;;;13.30;99.90;;;;;;5085304;28;19909;-74
2022/06/12 00:32:17;;;;;;;;;;;13.30;99.90;;;;;;5069554;28;20357;-75
2022/06/12 00:34:45;;;;;;;;;;;13.30;99.90;;;;;;5083175;28;19924;-74
2022/06/12 00:37:11;;;;;;;;;;;13.30;99.90;;;;;;5090640;28;20299;-74
2022/06/12 00:39:37;;;;;;;;;;;13.40;99.90;;;;;;5086711;28;19944;-74
2022/06/12 00:42:03;;;;;;;;;;;13.30;99.90;;;;;;5098807;28;19958;-74
2022/06/12 00:44:32;;;;;;;;;;;13.30;99.90;;;;;;5096388;28;20192;-75
2022/06/12 00:46:59;;;;;;;;;;;13.30;99.90;;;;;;5093458;28;19923;-74
2022/06/12 00:49:30;;;;;;;;;;;13.30;99.90;;;;;;5088918;28;19920;-74
2022/06/12 00:52:16;;;;;;;;;;;13.30;99.90;;;;;;5083224;28;19919;-74
2022/06/12 00:54:45;;;;;;;;;;;13.30;99.90;;;;;;5097392;28;20303;-75
2022/06/12 00:57:11;;;;;;;;;;;13.30;99.90;;;;;;5091598;28;20018;-75
2022/06/12 00:59:39;;;;;;;;;;;13.20;99.90;;;;;;5082175;28;20425;-76
2022/06/12 01:02:06;;;;;;;;;;;13.20;99.90;;;;;;5046055;28;20022;-72
2022/06/12 01:07:19;;;;;;;;;;;13.20;99.90;;;;;;5067051;28;19920;-73
2022/06/12 01:09:46;;;;;;;;;;;13.20;99.90;;;;;;5096393;28;19947;-73
2022/06/12 01:12:14;;;;;;;;;;;13.20;99.90;;;;;;5088598;28;19912;-73
2022/06/12 01:14:46;;;;;;;;;;;13.10;99.90;;;;;;5085239;28;19916;-73
2022/06/12 01:17:12;;;;;;;;;;;13.10;99.90;;;;;;5082466;28;20407;-73
2022/06/12 01:19:45;;;;;;;;;;;13.10;99.90;;;;;;5098227;28;19970;-74
2022/06/12 01:22:20;;;;;;;;;;;13.10;99.90;;;;;;5089976;28;19957;-73
2022/06/12 01:24:52;;;;;;;;;;;13.10;99.90;;;;;;5097383;28;20215;-74
2022/06/12 01:27:17;;;;;;;;;;;13.20;99.90;;;;;;5085211;28;19920;-73
2022/06/12 01:29:43;;;;;;;;;;;13.20;99.90;;;;;;5091565;28;19961;-73
2022/06/12 01:32:12;;;;;;;;;;;13.10;99.90;;;;;;5088512;28;19922;-73
2022/06/12 01:34:49;;;;;;;;;;;13.10;99.90;;;;;;5083477;28;19927;-73
2022/06/12 01:37:33;;;;;;;;;;;13.10;99.90;;;;;;5093897;28;19916;-73
2022/06/12 01:40:04;;;;;;;;;;;13.10;99.90;;;;;;5059887;28;19916;-73
2022/06/12 01:42:34;;;;;;;;;;;13.10;99.90;;;;;;5091373;28;19927;-73
2022/06/12 01:45:11;;;;;;;;;;;13.10;99.90;;;;;;5081269;28;20041;-73
2022/06/12 01:47:39;;;;;;;;;;;13.20;99.90;;;;;;5078264;28;19960;-73
2022/06/12 01:50:17;;;;;;;;;;;13.20;99.90;;;;;;5079762;28;19948;-73
2022/06/12 01:52:57;;;;;;;;;;;13.10;99.90;;;;;;5081581;28;19916;-73
2022/06/12 01:55:40;;;;;;;;;;;13.10;99.90;;;;;;5085055;28;19916;-73
2022/06/12 01:58:14;;;;;;;;;;;13.10;99.90;;;;;;5048227;28;19961;-72
2022/06/12 02:00:47;;;;;;;;;;;13.10;99.90;;;;;;5089966;28;19923;-73
2022/06/12 02:03:22;;;;;;;;;;;13.10;99.90;;;;;;5082253;28;19912;-73
2022/06/12 02:05:55;;;;;;;;;;;13.10;99.90;;;;;;5090892;28;19926;-74
2022/06/12 02:08:23;;;;;;;;;;;13.10;99.90;;;;;;5078028;28;19954;-73
2022/06/12 02:10:54;;;;;;;;;;;13.10;99.90;;;;;;5072699;28;19912;-73
2022/06/12 02:13:31;;;;;;;;;;;13.10;99.90;;;;;;5096193;28;19920;-74
2022/06/12 02:16:10;;;;;;;;;;;13.10;99.90;;;;;;5066773;28;19973;-76
2022/06/12 02:18:41;;;;;;;;;;;13.10;99.90;;;;;;5083500;28;19916;-74
2022/06/12 02:21:09;;;;;;;;;;;13.10;99.90;;;;;;5075455;28;20249;-73
2022/06/12 02:23:41;;;;;;;;;;;13.10;99.90;;;;;;5096376;28;19915;-73
2022/06/12 02:26:09;;;;;;;;;;;13.10;99.90;;;;;;5082121;28;20311;-73
2022/06/12 02:28:37;;;;;;;;;;;13.10;99.90;;;;;;5078489;28;19908;-73
2022/06/12 02:31:05;;;;;;;;;;;13.20;99.90;;;;;;5093234;28;19923;-73
2022/06/12 02:33:41;;;;;;;;;;;13.10;99.90;;;;;;5090419;28;19916;-74
2022/06/12 02:36:14;;;;;;;;;;;13.20;99.90;;;;;;5085940;28;19917;-73
2022/06/12 02:39:01;;;;;;;;;;;13.20;99.90;;;;;;5086498;28;19913;-73
2022/06/12 02:41:32;;;;;;;;;;;13.10;99.90;;;;;;5083865;28;19955;-73
2022/06/12 02:44:00;;;;;;;;;;;13.10;99.90;;;;;;5078518;28;20011;-73
2022/06/12 02:46:43;;;;;;;;;;;13.10;99.90;;;;;;5089763;28;19940;-73
2022/06/12 02:49:10;;;;;;;;;;;13.10;99.90;;;;;;5087573;28;20204;-73
2022/06/12 02:51:45;;;;;;;;;;;13.10;99.90;;;;;;5091953;28;20219;-74
2022/06/12 02:54:13;;;;;;;;;;;13.10;99.90;;;;;;5074126;28;19916;-73
2022/06/12 02:56:51;;;;;;;;;;;13.10;99.90;;;;;;5093375;28;20007;-75
2022/06/12 02:59:17;;;;;;;;;;;13.00;99.90;;;;;;5077538;28;19919;-73
2022/06/12 03:01:48;;;;;;;;;;;13.00;99.90;;;;;;5087547;28;19916;-73
2022/06/12 03:04:33;;;;;;;;;;;13.00;99.90;;;;;;5093086;28;19919;-73
2022/06/12 03:06:59;;;;;;;;;;;12.90;99.90;;;;;;5022072;28;19920;-73
2022/06/12 03:09:24;;;;;;;;;;;12.90;99.90;;;;;;4987365;28;20451;-74
2022/06/12 03:11:50;;;;;;;;;;;12.90;99.90;;;;;;4988734;28;19916;-73
2022/06/12 03:14:21;;;;;;;;;;;12.90;99.90;;;;;;4972519;28;19934;-72
2022/06/12 03:16:47;;;;;;;;;;;12.90;99.90;;;;;;4981139;28;20858;-74
2022/06/12 03:19:17;;;;;;;;;;;12.90;99.90;;;;;;4984945;28;20600;-74
2022/06/12 03:21:52;;;;;;;;;;;12.80;99.90;;;;;;4985666;28;19935;-74
2022/06/12 03:24:28;;;;;;;;;;;12.80;99.90;;;;;;4989838;28;19985;-74
2022/06/12 03:27:13;;;;;;;;;;;12.90;99.90;;;;;;4990621;28;19916;-74
2022/06/12 03:29:46;;;;;;;;;;;12.90;99.90;;;;;;4985635;28;19923;-73
2022/06/12 03:32:18;;;;;;;;;;;12.80;99.90;;;;;;4992633;28;20231;-74
2022/06/12 03:35:02;;;;;;;;;;;12.90;99.90;;;;;;4983373;28;19968;-74
2022/06/12 03:37:48;;;;;;;;;;;12.90;99.90;;;;;;5049498;28;19920;-73
2022/06/12 03:40:17;;;;;;;;;;;12.80;99.90;;;;;;5083749;28;19912;-74
2022/06/12 03:42:45;;;;;;;;;;;12.80;99.90;;;;;;5092100;28;19919;-74
2022/06/12 03:45:21;;;;;;;;;;;12.90;99.90;;;;;;5082393;28;20334;-73
2022/06/12 03:47:47;;;;;;;;;;;12.90;99.90;;;;;;5059090;28;19924;-73
2022/06/12 03:50:13;;;;;;;;;;;12.90;99.90;;;;;;5072385;28;20326;-73
2022/06/12 03:52:48;;;;;;;;;;;12.80;99.90;;;;;;5083561;28;19917;-73
2022/06/12 03:58:19;;;;;;;;;;;12.80;99.90;;;;;;5089906;28;19918;-74
2022/06/12 04:00:47;;;;;;;;;;;12.80;99.90;;;;;;5082033;28;20362;-73
2022/06/12 04:03:15;;;;;;;;;;;12.80;99.90;;;;;;5072174;28;19955;-73
2022/06/12 04:05:46;;;;;;;;;;;12.80;99.90;;;;;;5079691;28;20440;-74
2022/06/12 04:08:15;;;;;;;;;;;12.80;99.90;;;;;;5067405;28;20248;-74
2022/06/12 04:10:41;;;;;;;;;;;12.90;99.90;;;;;;5068067;28;19951;-73
2022/06/12 04:13:09;;;;;;;;;;;12.90;99.90;;;;;;5086174;28;20327;-73
2022/06/12 04:15:43;;;;;;;;;;;12.90;99.90;;;;;;5092491;28;19962;-73
2022/06/12 04:18:09;;;;;;;;;;;13.00;99.90;;;;;;5095231;28;19908;-73
2022/06/12 04:20:38;;;;;;;;;;;13.00;99.90;;;;;;5092244;28;19935;-74
2022/06/12 04:23:06;;;;;;;;;;;13.00;99.90;;;;;;5089463;28;19961;-73
2022/06/12 04:25:49;;;;;;;;;;;13.10;99.90;;;;;;5080440;28;19921;-74
2022/06/12 04:28:50;;;;;;;;;;;13.10;99.90;;;;;;5087382;28;19923;-74
2022/06/12 04:31:19;;;;;;;;;;;13.30;99.90;;;;;;5008972;28;19948;-73
2022/06/12 04:34:00;;;;;;;;;;;13.40;99.90;;;;;;5024218;28;19953;-74
2022/06/12 04:36:26;;;;;;;;;;;13.40;99.90;;;;;;5019242;28;19921;-73
2022/06/12 04:38:53;;;;;;;;;;;13.40;99.90;;;;;;5020872;28;20407;-73
2022/06/12 04:41:21;;;;;;;;;;;13.50;99.90;;;;;;5005923;28;20141;-74
2022/06/12 04:44:14;;;;;;;;;;;13.60;99.90;;;;;;5015318;28;19917;-74
2022/06/12 04:46:42;;;;;;;;;;;13.60;99.90;;;;;;4910595;28;19968;-74
2022/06/12 04:49:10;;;;;;;;;;;13.70;99.90;;;;;;4913265;28;20716;-74
2022/06/12 04:51:36;;;;;;;;;;;13.80;99.90;;;;;;4913962;28;20034;-74
2022/06/12 04:54:01;;;;;;;;;;;13.80;99.90;;;;;;4912301;28;20713;-74
2022/06/12 04:56:28;;;;;;;;;;;13.90;99.90;;;;;;4911566;28;20033;-74
2022/06/12 04:58:54;;;;;;;;;;;13.90;99.90;;;;;;4912666;28;19917;-72
2022/06/12 05:01:21;;;;;;;;;;;14.00;99.90;;;;;;5026743;28;20232;-73
2022/06/12 05:03:46;;;;;;;;;;;14.00;99.90;;;;;;5012330;28;19964;-73
2022/06/12 05:06:13;;;;;;;;;;;14.20;99.90;;;;;;5083331;28;19943;-73
2022/06/12 05:08:39;;;;;;;;;;;14.20;99.90;;;;;;5085330;28;19915;-73
2022/06/12 05:11:04;;;;;;;;;;;14.40;99.90;;;;;;5087157;28;19908;-75
2022/06/12 05:13:30;;;;;;;;;;;14.40;99.90;;;;;;5086205;28;19920;-73
2022/06/12 05:15:55;;;;;;;;;;;14.50;99.90;;;;;;5086101;28;19971;-73
2022/06/12 05:18:21;;;;;;;;;;;14.60;99.90;;;;;;5091283;28;20210;-73
2022/06/12 05:20:47;;;;;;;;;;;14.80;99.90;;;;;;5006595;28;19920;-73
2022/06/12 05:23:12;;;;;;;;;;;14.90;99.90;;;;;;4982217;28;20222;-73
2022/06/12 05:25:39;;;;;;;;;;;15.00;99.90;;;;;;4959939;28;20019;-74
2022/06/12 05:28:05;;;;;;;;;;;15.10;99.90;;;;;;4984135;28;19920;-73
2022/06/12 05:30:32;;;;;;;;;;;15.10;99.90;;;;;;4962588;28;19920;-74
2022/06/12 05:32:59;;;;;;;;;;;15.20;99.90;;;;;;4982839;28;19971;-74
2022/06/12 05:35:25;;;;;;;;;;;15.30;99.90;;;;;;4981605;28;20040;-73
2022/06/12 05:37:51;;;;;;;;;;;15.30;99.90;;;;;;4981631;28;20555;-73
2022/06/12 05:40:20;;;;;;;;;;;15.40;99.90;;;;;;4980268;28;19927;-73
2022/06/12 05:42:45;;;;;;;;;;;15.50;99.90;;;;;;4981029;28;20046;-74
2022/06/12 05:45:12;;;;;;;;;;;15.60;99.90;;;;;;4981031;28;19920;-74
2022/06/12 05:47:46;;;;;;;;;;;15.80;99.90;;;;;;4982251;28;19916;-72
2022/06/12 05:50:12;;;;;;;;;;;16.00;99.90;;;;;;4980100;28;21271;-74
2022/06/12 05:52:37;;;;;;;;;;;16.10;99.90;;;;;;4982883;28;19955;-74
2022/06/12 05:55:03;;;;;;;;;;;16.30;99.90;;;;;;4981176;28;19927;-74
2022/06/12 05:57:29;;;;;;;;;;;16.40;99.90;;;;;;4980319;28;20010;-74
2022/06/12 05:59:54;;;;;;;;;;;16.50;99.90;;;;;;4984339;28;21249;-73
2022/06/12 06:02:20;;;;;;;;;;;16.60;99.90;;;;;;4975797;28;21328;-74
2022/06/12 06:04:45;;;;;;;;;;;16.60;99.90;;;;;;4982764;28;20377;-74
2022/06/12 06:07:11;;;;;;;;;;;16.70;99.90;;;;;;4982750;28;19916;-74
2022/06/12 06:09:37;;;;;;;;;;;16.70;99.90;;;;;;4985469;28;19924;-74
2022/06/12 06:12:03;;;;;;;;;;;16.70;99.90;;;;;;4980301;28;19916;-73
2022/06/12 06:14:29;;;;;;;;;;;16.80;99.90;;;;;;4977311;28;20038;-73
2022/06/12 06:16:55;;;;;;;;;;;16.90;99.90;;;;;;4981778;28;20004;-74
2022/06/12 06:19:21;;;;;;;;;;;17.00;99.90;;;;;;4982503;28;20857;-73
2022/06/12 06:21:46;;;;;;;;;;;17.10;99.90;;;;;;4982594;28;20065;-73
2022/06/12 06:24:12;;;;;;;;;;;17.30;99.90;;;;;;4982445;28;19920;-74
2022/06/12 06:26:38;;;;;;;;;;;17.40;99.90;;;;;;4984132;28;20771;-73
2022/06/12 06:29:04;;;;;;;;;;;17.40;99.90;;;;;;4981861;28;20038;-74
2022/06/12 06:31:30;;;;;;;;;;;17.30;99.90;;;;;;4984731;28;19916;-73
2022/06/12 06:33:55;;;;;;;;;;;17.20;99.90;;;;;;4981038;28;19927;-75
2022/06/12 06:36:21;;;;;;;;;;;17.10;99.90;;;;;;4983378;28;19916;-73
2022/06/12 06:38:49;;;;;;;;;;;17.10;99.90;;;;;;4962472;28;19915;-73
2022/06/12 06:41:15;;;;;;;;;;;17.00;99.90;;;;;;4962424;28;20557;-73
2022/06/12 06:46:25;;;;;;;;;;;16.90;99.90;;;;;;4979420;28;19972;-73
2022/06/12 06:48:51;;;;;;;;;;;17.00;99.90;;;;;;4980873;28;19916;-73
2022/06/12 06:51:17;;;;;;;;;;;17.00;99.90;;;;;;4979749;28;20811;-73
2022/06/12 06:53:42;;;;;;;;;;;17.20;99.90;;;;;;4961239;28;19924;-73
2022/06/12 06:56:08;;;;;;;;;;;17.20;99.90;;;;;;4979993;28;19915;-74
2022/06/12 06:58:35;;;;;;;;;;;17.30;99.90;;;;;;4983091;28;20783;-73
2022/06/12 07:01:01;;;;;;;;;;;17.30;99.90;;;;;;4980698;28;19994;-75
2022/06/12 07:03:27;;;;;;;;;;;17.30;99.90;;;;;;4962187;28;19927;-73
2022/06/12 07:05:53;;;;;;;;;;;17.30;99.90;;;;;;4972826;28;20014;-75
2022/06/12 07:08:20;;;;;;;;;;;17.40;99.90;;;;;;4966401;28;20306;-73
2022/06/12 07:10:46;;;;;;;;;;;17.40;99.90;;;;;;4980526;28;19971;-73
2022/06/12 07:13:12;;;;;;;;;;;17.40;99.90;;;;;;4974121;28;19935;-73
2022/06/12 07:15:38;;;;;;;;;;;17.50;99.90;;;;;;4956427;28;20558;-74
2022/06/12 07:18:05;;;;;;;;;;;17.60;99.90;;;;;;4955688;28;19961;-73
2022/06/12 07:20:33;;;;;;;;;;;17.60;99.90;;;;;;4959907;28;24481;-73
2022/06/12 07:22:59;;;;;;;;;;;17.60;99.90;;;;;;4962233;28;20002;-73
2022/06/12 07:25:24;;;;;;;;;;;17.70;99.90;;;;;;4954959;28;19928;-73
2022/06/12 07:27:50;;;;;;;;;;;17.70;99.90;;;;;;4957048;28;19916;-72
2022/06/12 07:30:18;;;;;;;;;;;17.80;99.90;;;;;;4958190;28;19956;-74
2022/06/12 07:32:44;;;;;;;;;;;17.70;99.90;;;;;;4972119;28;19916;-73
2022/06/12 07:35:10;;;;;;;;;;;17.80;99.90;;;;;;4982308;28;19964;-74
2022/06/12 07:37:36;;;;;;;;;;;17.90;99.90;;;;;;4960917;28;20640;-73
2022/06/12 07:40:04;;;;;;;;;;;18.00;99.90;;;;;;4959258;28;19916;-75
2022/06/12 07:42:30;;;;;;;;;;;18.10;99.90;;;;;;4959374;28;20641;-73
2022/06/12 07:44:56;;;;;;;;;;;18.20;99.90;;;;;;4956993;28;19974;-75
2022/06/12 07:47:21;;;;;;;;;;;18.30;99.90;;;;;;4958466;28;20430;-73
2022/06/12 07:49:47;;;;;;;;;;;18.50;99.90;;;;;;4976052;28;20876;-74
2022/06/12 07:52:12;;;;;;;;;;;18.70;99.90;;;;;;4957891;28;20784;-75
2022/06/12 07:54:38;;;;;;;;;;;19.00;99.90;;;;;;4958516;28;19923;-73
2022/06/12 07:57:05;;;;;;;;;;;19.10;99.90;;;;;;4953389;28;19915;-74
2022/06/12 07:59:30;;;;;;;;;;;19.30;99.90;;;;;;4953078;28;20682;-74
2022/06/12 08:01:56;;;;;;;;;;;19.50;99.90;;;;;;4950035;28;20565;-74
2022/06/12 08:04:22;;;;;;;;;;;19.80;99.90;;;;;;4951889;28;19924;-74
2022/06/12 08:06:48;;;;;;;;;;;20.20;99.90;;;;;;4950808;28;19973;-74
2022/06/12 08:09:14;;;;;;;;;;;20.30;99.90;;;;;;4956818;28;19923;-76
2022/06/12 08:11:41;;;;;;;;;;;20.50;99.90;;;;;;4956758;28;19916;-74
2022/06/12 08:14:07;;;;;;;;;;;20.50;99.90;;;;;;4982523;28;19924;-73
2022/06/12 08:16:33;;;;;;;;;;;20.60;99.90;;;;;;5066026;28;20325;-73
2022/06/12 08:18:59;;;;;;;;;;;20.90;99.90;;;;;;5073968;28;20003;-74
2022/06/12 08:21:25;;;;;;;;;;;21.30;99.90;;;;;;5068960;28;19924;-73
2022/06/12 08:23:53;;;;;;;;;;;21.40;99.90;;;;;;5069134;28;20009;-73
2022/06/12 08:26:24;;;;;;;;;;;21.50;99.90;;;;;;5069040;28;19970;-73
2022/06/12 08:28:50;;;;;;;;;;;21.90;99.90;;;;;;5060103;28;19924;-73
2022/06/12 08:31:24;;;;;;;;;;;21.90;99.90;;;;;;5075245;28;19916;-73
2022/06/12 08:33:50;;;;;;;;;;;21.80;99.90;;;;;;5071336;28;20333;-73
2022/06/12 08:36:17;;;;;;;;;;;21.60;99.90;;;;;;5067934;28;19987;-73
2022/06/12 08:38:43;;;;;;;;;;;21.60;99.90;;;;;;5069656;28;19923;-76
2022/06/12 08:41:12;;;;;;;;;;;21.80;99.90;;;;;;5060863;28;19913;-74
2022/06/12 08:43:56;;;;;;;;;;;22.00;99.90;;;;;;5063240;28;19920;-74
2022/06/12 08:46:32;;;;;;;;;;;22.00;99.90;;;;;;5070695;28;19955;-73
2022/06/12 08:49:01;;;;;;;;;;;22.40;99.90;;;;;;5063510;28;19921;-74
2022/06/12 08:51:31;;;;;;;;;;;22.50;99.90;;;;;;5059973;28;19913;-74
2022/06/12 08:53:59;;;;;;;;;;;22.30;99.90;;;;;;5067736;28;19913;-73
2022/06/12 08:56:34;;;;;;;;;;;21.90;99.90;;;;;;5084626;28;19952;-74
2022/06/12 08:59:05;;;;;;;;;;;22.00;99.90;;;;;;5061637;28;19913;-73
2022/06/12 09:01:31;;;;;;;;;;;22.40;99.90;;;;;;5061395;28;19919;-73
2022/06/12 09:03:56;;;;;;;;;;;22.80;99.90;;;;;;5056462;28;20632;-73
2022/06/12 09:06:35;;;;;;;;;;;23.30;99.90;;;;;;5062149;28;19912;-73
2022/06/12 09:09:20;;;;;;;;;;;23.60;99.90;;;;;;5053001;28;19923;-73
2022/06/12 09:11:47;;;;;;;;;;;23.40;99.90;;;;;;5063346;28;19920;-73
2022/06/12 09:14:21;;;;;;;;;;;23.40;99.90;;;;;;5055913;28;19934;-74
2022/06/12 09:17:10;;;;;;;;;;;23.60;99.90;;;;;;5092482;28;19920;-73
2022/06/12 09:19:39;;;;;;;;;;;23.60;99.90;;;;;;5089971;28;19923;-73
2022/06/12 09:22:14;;;;;;;;;;;23.90;99.90;;;;;;5088978;28;19916;-73
2022/06/12 09:24:39;;;;;;;;;;;23.90;99.80;;;;;;5093366;28;19964;-72
2022/06/12 09:27:17;;;;;;;;;;;23.80;99.50;;;;;;5093673;28;19946;-73
2022/06/12 09:29:42;;;;;;;;;;;23.70;98.00;;;;;;5087017;28;20004;-74
2022/06/12 09:32:24;;;;;;;;;;;23.30;98.60;;;;;;5024667;28;19920;-74
2022/06/12 09:34:58;;;;;;;;;;;23.30;99.90;;;;;;4999950;28;19923;-75
2022/06/12 09:40:31;;;;;;;;;;;22.60;98.10;;;;;;5001952;28;19923;-75
2022/06/12 09:43:12;;;;;;;;;;;22.50;99.60;;;;;;4996589;28;19916;-73
2022/06/12 09:45:42;;;;;;;;;;;22.20;97.80;;;;;;5049166;28;19999;-73
2022/06/12 09:48:08;;;;;;;;;;;21.80;98.30;;;;;;5087056;28;19924;-73
2022/06/12 09:50:42;;;;;;;;;;;21.60;99.90;;;;;;5089837;28;20269;-74
2022/06/12 09:53:11;;;;;;;;;;;21.80;99.80;;;;;;5088141;28;19924;-73
2022/06/12 09:55:40;;;;;;;;;;;22.20;98.30;;;;;;5081495;28;20360;-73
2022/06/12 09:58:11;;;;;;;;;;;22.60;99.90;;;;;;5088352;28;19927;-74
2022/06/12 10:00:40;;;;;;;;;;;23.20;99.90;;;;;;5090171;28;19912;-74
2022/06/12 10:03:14;;;;;;;;;;;23.40;97.40;;;;;;5033219;28;19920;-74
2022/06/12 10:06:02;;;;;;;;;;;23.50;97.70;;;;;;5086067;28;19983;-77
2022/06/12 10:08:40;;;;;;;;;;;23.50;95.00;;;;;;5070707;28;19928;-75
2022/06/12 10:11:09;;;;;;;;;;;23.50;96.80;;;;;;5072727;28;20003;-75
2022/06/12 10:13:37;;;;;;;;;;;23.50;95.20;;;;;;5068428;28;20223;-73
2022/06/12 10:16:05;;;;;;;;;;;23.60;97.60;;;;;;5077793;28;20387;-76
2022/06/12 10:18:36;;;;;;;;;;;23.60;96.30;;;;;;5058928;28;19924;-74
2022/06/12 10:21:05;;;;;;;;;;;24.10;96.20;;;;;;5012451;28;19912;-74
2022/06/12 10:23:31;;;;;;;;;;;24.30;97.60;;;;;;5087411;28;20014;-74
2022/06/12 10:25:58;;;;;;;;;;;24.30;97.00;;;;;;5085461;28;19998;-74
2022/06/12 10:28:23;;;;;;;;;;;24.20;95.50;;;;;;5083821;28;19916;-75
2022/06/12 10:31:01;;;;;;;;;;;24.10;96.60;;;;;;5088221;28;19916;-74
2022/06/12 10:33:30;;;;;;;;;;;24.20;97.80;;;;;;5083830;28;19926;-75
2022/06/12 10:36:03;;;;;;;;;;;24.30;95.30;;;;;;5079650;28;20239;-74
2022/06/12 10:38:31;;;;;;;;;;;24.30;96.80;;;;;;5072792;28;19920;-74
2022/06/12 10:40:58;;;;;;;;;;;24.40;97.90;;;;;;5073197;28;19970;-77
2022/06/12 10:43:26;;;;;;;;;;;24.70;94.70;;;;;;5057575;28;19916;-74
2022/06/12 10:46:04;;;;;;;;;;;24.60;94.20;;;;;;5073082;28;20015;-74
2022/06/12 10:48:32;;;;;;;;;;;24.70;95.30;;;;;;5057107;28;19916;-75
2022/06/12 10:51:00;;;;;;;;;;;24.40;93.20;;;;;;5090624;28;19920;-74
2022/06/12 10:53:28;;;;;;;;;;;24.40;94.70;;;;;;5080219;28;19971;-74
2022/06/12 10:55:53;;;;;;;;;;;24.10;92.70;;;;;;5012612;28;20679;-74
2022/06/12 10:58:37;;;;;;;;;;;23.90;92.60;;;;;;4974925;28;19916;-75
2022/06/12 11:01:23;;;;;;;;;;;23.90;94.30;;;;;;4976472;28;19926;-74
2022/06/12 11:04:15;;;;;;;;;;;23.90;94.80;;;;;;4971526;28;20616;-74
2022/06/12 11:06:45;;;;;;;;;;;23.90;93.40;;;;;;4934931;28;20540;-75
2022/06/12 11:09:14;;;;;;;;;;;24.00;94.00;;;;;;4983737;28;19966;-75
2022/06/12 11:11:39;;;;;;;;;;;24.00;95.70;;;;;;5002454;28;20337;-74
2022/06/12 11:14:05;;;;;;;;;;;24.30;94.80;;;;;;4973317;28;19967;-75
2022/06/12 11:16:38;;;;;;;;;;;24.40;94.40;;;;;;4977448;28;19920;-75
2022/06/12 11:19:26;;;;;;;;;;;24.20;94.40;;;;;;4995050;28;20017;-73
2022/06/12 11:21:58;;;;;;;;;;;24.20;96.00;;;;;;4982422;28;19920;-74
2022/06/12 11:24:24;;;;;;;;;;;24.30;95.90;;;;;;4999680;28;19924;-72
2022/06/12 11:27:02;;;;;;;;;;;24.40;94.90;;;;;;5004151;28;19916;-74
2022/06/12 11:29:34;;;;;;;;;;;24.70;95.40;;;;;;5002891;28;20022;-73
2022/06/12 11:32:26;;;;;;;;;;;24.70;95.20;;;;;;5003593;28;19916;-74
2022/06/12 11:35:11;;;;;;;;;;;24.70;95.40;;;;;;4991685;28;19924;-73
2022/06/12 11:37:54;;;;;;;;;;;24.30;95.40;;;;;;5001624;28;19927;-75
2022/06/12 11:40:35;;;;;;;;;;;23.40;93.50;;;;;;4990197;28;20831;-74
2022/06/12 11:43:09;;;;;;;;;;;23.30;94.50;;;;;;4972054;28;21420;-74
2022/06/12 11:45:47;;;;;;;;;;;23.80;96.00;;;;;;4965787;28;19917;-74
2022/06/12 11:48:34;;;;;;;;;;;24.00;94.80;;;;;;5001206;28;19922;-74
2022/06/12 11:51:18;;;;;;;;;;;24.30;94.90;;;;;;4983071;28;19916;-75
2022/06/12 11:53:44;;;;;;;;;;;24.40;94.90;;;;;;4982626;28;20235;-74
2022/06/12 11:56:18;;;;;;;;;;;24.20;95.30;;;;;;4959771;28;19923;-73
2022/06/12 11:58:50;;;;;;;;;;;24.20;93.90;;;;;;4975693;28;20669;-74
2022/06/12 12:01:39;;;;;;;;;;;24.30;94.20;;;;;;4977176;28;21623;-74
2022/06/12 12:04:14;;;;;;;;;;;24.40;96.60;;;;;;4999241;28;20658;-75
2022/06/12 12:06:59;;;;;;;;;;;24.40;96.20;;;;;;4968819;28;20054;-74
2022/06/12 12:09:33;;;;;;;;;;;24.40;94.70;;;;;;4999622;28;20011;-74
2022/06/12 12:12:04;;;;;;;;;;;24.40;94.60;;;;;;5000370;28;19920;-75
2022/06/12 12:14:35;;;;;;;;;;;24.80;95.20;;;;;;4982372;28;20019;-75
2022/06/12 12:17:03;;;;;;;;;;;24.70;96.00;;;;;;5001612;28;19963;-76
2022/06/12 12:19:41;;;;;;;;;;;24.60;96.00;;;;;;4982179;28;19965;-74
2022/06/12 12:22:27;;;;;;;;;;;24.50;94.50;;;;;;5003323;28;19966;-74
2022/06/12 12:24:59;;;;;;;;;;;24.20;96.00;;;;;;5000181;28;20845;-74
2022/06/12 12:27:48;;;;;;;;;;;24.30;95.00;;;;;;5003238;28;20351;-77
2022/06/12 12:30:33;;;;;;;;;;;24.30;94.80;;;;;;4983755;28;20387;-74
2022/06/12 12:33:01;;;;;;;;;;;24.50;95.20;;;;;;4957573;28;24720;-74
2022/06/12 12:41:11;;;;;;;;;;;24.60;95.90;;;;;;5004777;28;20007;-75
2022/06/12 12:43:48;;;;;;;;;;;24.50;94.70;;;;;;5003203;28;19964;-74
2022/06/12 12:46:13;;;;;;;;;;;24.40;95.30;;;;;;4963468;28;21147;-74
2022/06/12 12:48:49;;;;;;;;;;;24.50;94.00;;;;;;4976237;28;20572;-74
2022/06/12 12:51:41;;;;;;;;;;;24.10;95.40;;;;;;4971776;28;19970;-75
2022/06/12 12:54:08;;;;;;;;;;;23.80;93.20;;;;;;4968501;28;24227;-74
2022/06/12 12:56:34;;;;;;;;;;;23.70;95.40;;;;;;4956636;28;19916;-74
2022/06/12 12:59:07;;;;;;;;;;;23.90;96.70;;;;;;4978885;28;19923;-74
2022/06/12 13:01:38;;;;;;;;;;;23.80;93.70;;;;;;4981281;28;19916;-75
2022/06/12 13:04:15;;;;;;;;;;;23.60;93.40;;;;;;5012353;28;19919;-75
2022/06/12 13:06:44;;;;;;;;;;;23.10;94.20;;;;;;5072574;28;19912;-76
2022/06/12 13:09:34;;;;;;;;;;;23.10;95.60;;;;;;5095707;28;20291;-74
2022/06/12 13:12:18;;;;;;;;;;;23.10;96.10;;;;;;5091946;28;19913;-74
2022/06/12 13:14:44;;;;;;;;;;;23.20;96.10;;;;;;5088927;28;19959;-74
2022/06/12 13:17:15;;;;;;;;;;;23.10;95.50;;;;;;5074415;28;20244;-77
2022/06/12 13:19:41;;;;;;;;;;;23.00;93.60;;;;;;5075955;28;20253;-76
2022/06/12 13:22:22;;;;;;;;;;;22.60;94.20;;;;;;5077051;28;19912;-73
2022/06/12 13:24:47;;;;;;;;;;;22.50;95.60;;;;;;5092732;28;19955;-74
2022/06/12 13:27:20;;;;;;;;;;;22.70;97.00;;;;;;5089335;28;19951;-75
2022/06/12 13:29:47;;;;;;;;;;;22.90;96.90;;;;;;5092867;28;19926;-74
2022/06/12 13:32:20;;;;;;;;;;;23.10;94.60;;;;;;5094916;28;19916;-74
2022/06/12 13:34:53;;;;;;;;;;;23.00;95.50;;;;;;5087784;28;19923;-74
2022/06/12 13:37:20;;;;;;;;;;;23.00;96.40;;;;;;5091533;28;19920;-74
2022/06/12 13:39:47;;;;;;;;;;;22.90;96.20;;;;;;5087089;28;19912;-74
2022/06/12 13:42:14;;;;;;;;;;;22.90;97.20;;;;;;5091447;28;20013;-74
2022/06/12 13:44:42;;;;;;;;;;;22.70;96.50;;;;;;5091970;28;19919;-73
2022/06/12 13:47:19;;;;;;;;;;;22.60;95.70;;;;;;5090893;28;19912;-73
2022/06/12 13:49:54;;;;;;;;;;;22.50;97.80;;;;;;5076926;28;19908;-73
2022/06/12 13:52:39;;;;;;;;;;;22.60;96.20;;;;;;5093233;28;20295;-73
2022/06/12 13:55:23;;;;;;;;;;;22.50;96.50;;;;;;5092480;28;20215;-75
2022/06/12 13:57:48;;;;;;;;;;;22.30;95.60;;;;;;5072149;28;19920;-72
2022/06/12 14:00:25;;;;;;;;;;;22.10;97.40;;;;;;5074758;28;19916;-76
2022/06/12 14:02:51;;;;;;;;;;;22.30;97.20;;;;;;5086654;28;20338;-77
2022/06/12 14:05:21;;;;;;;;;;;21.60;96.60;;;;;;5056992;28;19970;-74
2022/06/12 14:07:47;;;;;;;;;;;21.20;97.10;;;;;;5089210;28;20214;-75
2022/06/12 14:10:15;;;;;;;;;;;20.90;98.10;;;;;;5095908;28;19912;-74
2022/06/12 14:12:42;;;;;;;;;;;21.10;97.30;;;;;;5093058;28;20022;-76
2022/06/12 14:15:26;;;;;;;;;;;21.10;98.10;;;;;;5084986;28;19931;-76
2022/06/12 14:17:53;;;;;;;;;;;21.20;97.90;;;;;;5091337;28;19958;-77
2022/06/12 14:20:23;;;;;;;;;;;21.20;96.80;;;;;;5094569;28;19953;-75
2022/06/12 14:22:50;;;;;;;;;;;21.30;98.20;;;;;;4995327;28;19917;-76
2022/06/12 14:25:27;;;;;;;;;;;21.50;96.70;;;;;;4993089;28;19939;-77
2022/06/12 14:27:54;;;;;;;;;;;21.50;97.00;;;;;;4999384;28;20646;-79
2022/06/12 14:30:47;;;;;;;;;;;21.40;97.90;;;;;;5005892;28;19917;-77
2022/06/12 14:33:29;;;;;;;;;;;21.40;97.80;;;;;;5092724;28;19916;-76
2022/06/12 14:35:55;;;;;;;;;;;21.60;97.50;;;;;;5092404;28;19919;-77
2022/06/12 14:38:24;;;;;;;;;;;21.60;98.30;;;;;;5091702;28;19916;-76
2022/06/12 14:40:49;;;;;;;;;;;21.60;99.00;;;;;;5084452;28;19919;-78
2022/06/12 14:43:22;;;;;;;;;;;21.90;99.90;;;;;;5090534;28;19916;-77
2022/06/12 14:45:52;;;;;;;;;;;22.10;97.70;;;;;;5087968;28;19919;-76
2022/06/12 14:48:22;;;;;;;;;;;22.50;98.80;;;;;;5078421;28;19908;-76
2022/06/12 14:50:48;;;;;;;;;;;22.50;97.70;;;;;;4989124;28;19936;-76
2022/06/12 14:53:13;;;;;;;;;;;22.20;97.80;;;;;;5064969;28;19956;-77